createdAt,value
2022-08-02T00:01:36.991Z,100511.41
2022-08-02T00:06:43.448Z,100510.64
2022-08-02T00:11:49.231Z,100517.48
2022-08-02T00:16:54.864Z,100518.98
2022-08-02T00:22:00.848Z,100515.73
2022-08-02T00:27:09.530Z,100519.20
2022-08-02T00:32:15.472Z,100522.04
2022-08-02T00:37:21.293Z,100525.58
2022-08-02T00:42:27.114Z,100526.21
2022-08-02T00:47:33.645Z,100524.94
2022-08-02T00:52:39.660Z,100525.25
2022-08-02T00:57:45.370Z,100526.38
2022-08-02T01:02:51.314Z,100524.22
2022-08-02T01:07:58.011Z,100518.79
2022-08-02T01:13:03.902Z,100524.15
2022-08-02T01:18:23.826Z,100532.60
2022-08-02T01:23:45.456Z,100540.84
2022-08-02T01:28:58.524Z,100549.04
2022-08-02T01:34:08.015Z,100545.20
2022-08-02T01:39:27.565Z,100547.91
2022-08-02T01:44:41.256Z,100547.27
2022-08-02T01:49:51.880Z,100545.39
2022-08-02T01:55:01.636Z,100548.55
2022-08-02T02:00:11.482Z,100544.73
2022-08-02T02:05:19.848Z,100540.63
2022-08-02T02:10:30.410Z,100540.73
2022-08-02T02:15:40.917Z,100540.21
2022-08-02T02:20:48.353Z,100550.10
2022-08-02T02:25:55.751Z,100550.94
2022-08-02T02:31:06.493Z,100552.87
2022-08-02T02:36:14.118Z,100555.19
2022-08-02T02:41:21.411Z,100554.00
2022-08-02T02:46:30.120Z,100552.92
2022-08-02T02:51:37.092Z,100558.39
2022-08-02T02:56:44.616Z,100563.16
2022-08-02T03:01:57.031Z,100569.58
2022-08-02T03:07:05.869Z,100570.90
2022-08-02T03:12:12.724Z,100571.23
2022-08-02T03:17:19.089Z,100568.05
2022-08-02T03:22:24.850Z,100564.94
2022-08-02T03:27:30.859Z,100563.92
2022-08-02T03:32:38.412Z,100566.08
2022-08-02T03:37:45.446Z,100567.68
2022-08-02T03:42:52.309Z,100568.20
2022-08-02T03:47:59.083Z,100562.76
2022-08-02T03:53:06.388Z,100568.54
2022-08-02T03:58:26.922Z,100578.48
2022-08-02T04:03:32.852Z,100589.08
2022-08-02T04:08:39.128Z,100593.33
2022-08-02T04:13:45.404Z,100603.17
2022-08-02T04:19:01.081Z,100606.28
2022-08-02T04:24:11.121Z,100606.85
2022-08-02T04:29:19.153Z,100603.63
2022-08-02T04:34:25.584Z,100614.37
2022-08-02T04:39:31.862Z,100627.67
2022-08-02T04:44:38.449Z,100633.10
2022-08-02T04:49:44.402Z,100636.13
2022-08-02T04:54:51.249Z,100639.56
2022-08-02T04:59:57.375Z,100639.04
2022-08-02T05:05:09.735Z,100635.88
2022-08-02T05:10:16.889Z,100651.06
2022-08-02T05:15:22.725Z,100651.80
2022-08-02T05:20:28.683Z,100659.98
2022-08-02T05:25:34.794Z,100671.00
2022-08-02T05:30:41.084Z,100675.74
2022-08-02T05:35:47.165Z,100683.17
2022-08-02T05:40:54.377Z,100690.05
2022-08-02T05:46:01.180Z,100692.91
2022-08-02T05:51:12.982Z,100692.63
2022-08-02T05:56:24.879Z,100698.90
2022-08-02T06:01:40.837Z,100697.89
2022-08-02T06:06:49.532Z,100699.02
2022-08-02T06:12:01.475Z,100702.97
2022-08-02T06:17:09.291Z,100705.95
2022-08-02T06:22:33.962Z,100706.16
2022-08-02T06:27:43.490Z,100707.08
2022-08-02T06:32:52.649Z,100714.36
2022-08-02T06:38:02.032Z,100721.62
2022-08-02T06:43:18.309Z,100726.88
2022-08-02T06:48:24.278Z,100728.34
2022-08-02T06:53:30.422Z,100724.36
2022-08-02T06:58:34.705Z,100722.25
2022-08-02T07:03:41.521Z,100731.56
2022-08-02T07:09:04.952Z,100731.04
2022-08-02T07:14:13.340Z,100734.66
2022-08-02T07:19:19.237Z,100737.65
2022-08-02T07:24:24.815Z,100737.11
2022-08-02T07:29:29.065Z,100735.92
2022-08-02T07:34:39.336Z,100730.38
2022-08-02T07:39:47.513Z,100725.19
2022-08-02T07:44:54.923Z,100731.31
2022-08-02T07:50:00.918Z,100732.88
2022-08-02T07:55:08.154Z,100732.19
2022-08-02T08:00:17.444Z,100731.55
2022-08-02T08:05:23.861Z,100738.55
2022-08-02T08:10:30.072Z,100742.26
2022-08-02T08:15:36.084Z,100742.70
2022-08-02T08:20:42.762Z,100734.53
2022-08-02T08:25:48.670Z,100742.70
2022-08-02T08:30:54.663Z,100742.77
2022-08-02T08:36:02.461Z,100745.29
2022-08-02T08:41:08.567Z,100748.84
2022-08-02T08:46:25.061Z,100748.33
2022-08-02T08:51:36.705Z,100747.14
2022-08-02T08:56:44.181Z,100751.48
2022-08-02T09:01:52.090Z,100748.75
2022-08-02T09:06:58.354Z,100751.83
2022-08-02T09:12:16.766Z,100748.88
2022-08-02T09:17:22.711Z,100750.77
2022-08-02T09:22:28.559Z,100750.52
2022-08-02T09:27:37.515Z,100759.13
2022-08-02T09:32:50.021Z,100753.14
2022-08-02T09:38:10.725Z,100761.05
2022-08-02T09:43:17.755Z,100762.85
2022-08-02T09:48:23.454Z,100762.23
2022-08-02T09:53:30.879Z,100763.09
2022-08-02T09:58:40.044Z,100762.23
2022-08-02T10:04:00.743Z,100765.38
2022-08-02T10:09:08.286Z,100768.68
2022-08-02T10:14:14.273Z,100765.73
2022-08-02T10:19:59.636Z,100760.66
2022-08-02T10:24:48.203Z,100763.06
2022-08-02T10:29:58.010Z,100764.17
2022-08-02T10:35:21.759Z,100762.14
2022-08-02T10:40:47.193Z,100753.52
2022-08-02T10:45:53.852Z,100753.95
2022-08-02T10:51:04.503Z,100752.84
2022-08-02T10:56:10.372Z,100756.70
2022-08-02T11:01:39.057Z,100755.30
2022-08-02T11:07:10.802Z,100749.25
2022-08-02T11:12:18.623Z,100753.05
2022-08-02T11:17:23.003Z,100751.30
2022-08-02T11:22:28.943Z,100747.02
2022-08-02T11:27:35.381Z,100746.08
2022-08-02T11:32:41.541Z,100744.06
2022-08-02T11:37:47.358Z,100741.32
2022-08-02T11:42:53.765Z,100744.95
2022-08-02T11:48:00.128Z,100749.89
2022-08-02T11:53:14.744Z,100756.61
2022-08-02T11:58:20.742Z,100760.83
2022-08-02T12:03:27.021Z,100757.25
2022-08-02T12:08:33.159Z,100753.27
2022-08-02T12:13:56.820Z,100749.41
2022-08-02T12:19:19.470Z,100743.69
2022-08-02T12:24:31.716Z,100746.16
2022-08-02T12:29:58.004Z,100743.02
2022-08-02T12:35:11.900Z,100742.08
2022-08-02T12:40:25.715Z,100748.90
2022-08-02T12:45:48.563Z,100752.16
2022-08-02T12:50:55.059Z,100743.98
2022-08-02T12:56:03.943Z,100747.41
2022-08-02T13:01:11.259Z,100744.07
2022-08-02T13:06:43.045Z,100741.96
2022-08-02T13:11:45.119Z,100735.55
2022-08-02T13:16:51.485Z,100735.89
2022-08-02T13:22:02.034Z,100739.61
2022-08-02T13:27:09.969Z,100750.86
2022-08-02T13:32:16.471Z,100745.32
2022-08-02T13:37:23.224Z,100742.29
2022-08-02T13:42:29.206Z,100739.27
2022-08-02T13:47:36.209Z,100741.36
2022-08-02T13:53:01.382Z,100742.77
2022-08-02T13:58:07.558Z,100740.90
2022-08-02T14:03:13.445Z,100743.09
2022-08-02T14:08:22.545Z,100740.99
2022-08-02T14:13:28.522Z,100737.85
2022-08-02T14:18:42.333Z,100735.45
2022-08-02T14:23:49.860Z,100736.13
2022-08-02T14:28:56.833Z,100738.44
2022-08-02T14:34:03.468Z,100732.34
2022-08-02T14:39:09.878Z,100731.05
2022-08-02T14:44:15.871Z,100734.52
2022-08-02T14:49:25.901Z,100727.73
2022-08-02T14:54:33.979Z,100728.95
2022-08-02T14:59:42.593Z,100725.20
2022-08-02T15:04:48.722Z,100726.64
2022-08-02T15:09:54.594Z,100725.86
2022-08-02T15:15:00.529Z,100723.42
2022-08-02T15:20:25.404Z,100725.39
2022-08-02T15:25:32.555Z,100728.87
2022-08-02T15:30:39.516Z,100734.16
2022-08-02T15:35:45.383Z,100734.45
2022-08-02T15:40:51.549Z,100733.60
2022-08-02T15:45:57.487Z,100737.06
2022-08-02T15:51:03.890Z,100733.30
2022-08-02T15:56:13.026Z,100740.52
2022-08-02T16:01:19.782Z,100737.02
2022-08-02T16:06:49.017Z,100742.35
2022-08-02T16:11:55.134Z,100741.00
2022-08-02T16:17:01.203Z,100734.73
2022-08-02T16:22:07.031Z,100741.77
2022-08-02T16:27:17.443Z,100747.52
2022-08-02T16:32:23.396Z,100747.77
2022-08-02T16:37:50.412Z,100751.65
2022-08-02T16:42:55.496Z,100746.35
2022-08-02T16:48:05.259Z,100750.06
2022-08-02T16:53:17.208Z,100746.63
2022-08-02T16:58:37.936Z,100752.02
2022-08-02T17:03:56.599Z,100759.60
2022-08-02T17:09:04.030Z,100756.11
2022-08-02T17:14:10.061Z,100755.54
2022-08-02T17:19:16.162Z,100761.55
2022-08-02T17:24:22.032Z,100759.31
2022-08-02T17:29:32.812Z,100766.10
2022-08-02T17:34:39.079Z,100761.80
2022-08-02T17:39:51.592Z,100765.05
2022-08-02T17:45:00.929Z,100766.34
2022-08-02T17:50:13.257Z,100767.15
2022-08-02T17:55:19.457Z,100769.89
2022-08-02T18:00:30.832Z,100777.21
2022-08-02T18:11:03.985Z,100784.39
2022-08-02T18:16:21.337Z,100789.18
2022-08-02T18:21:27.747Z,100792.47
2022-08-02T18:26:35.774Z,100796.61
2022-08-02T18:31:50.894Z,100803.13
2022-08-02T18:36:57.603Z,100804.85
2022-08-02T18:42:03.910Z,100808.30
2022-08-02T18:47:09.917Z,100808.10
2022-08-02T18:52:16.844Z,100818.59
2022-08-02T18:58:02.453Z,100824.38
2022-08-02T19:03:07.756Z,100821.07
2022-08-02T19:08:15.169Z,100825.30
2022-08-02T19:13:21.250Z,100826.16
2022-08-02T19:18:30.207Z,100829.89
2022-08-02T19:23:36.559Z,100826.38
2022-08-02T19:29:01.157Z,100832.84
2022-08-02T19:34:16.280Z,100831.90
2022-08-02T19:39:22.475Z,100833.36
2022-08-02T19:44:33.358Z,100834.23
2022-08-02T19:49:40.858Z,100830.65
2022-08-02T19:54:54.421Z,100827.29
2022-08-02T20:00:03.994Z,100829.11
2022-08-02T20:05:24.018Z,100826.73
2022-08-02T20:10:33.524Z,100825.83
2022-08-02T20:15:56.391Z,100828.27
2022-08-02T20:21:03.667Z,100833.00
2022-08-02T20:26:10.194Z,100833.00
2022-08-02T20:31:16.298Z,100832.40
2022-08-02T20:36:22.190Z,100831.97
2022-08-02T20:41:36.936Z,100831.39
2022-08-02T20:46:52.243Z,100829.75
2022-08-02T20:51:58.235Z,100833.44
2022-08-02T20:57:04.430Z,100839.84
2022-08-02T21:02:13.023Z,100841.41
2022-08-02T21:07:22.412Z,100842.44
2022-08-02T21:12:30.171Z,100842.23
2022-08-02T21:17:42.612Z,100842.70
2022-08-02T21:22:50.782Z,100846.73
2022-08-02T21:27:56.957Z,100847.43
2022-08-02T21:33:02.940Z,100850.73
2022-08-02T21:38:09.935Z,100850.55
2022-08-02T21:43:39.061Z,100848.04
2022-08-02T21:48:45.182Z,100845.58
2022-08-02T21:54:18.886Z,100846.13
2022-08-02T21:59:17.508Z,100850.79
2022-08-02T22:04:23.862Z,100850.98
2022-08-02T22:14:56.868Z,100850.85
2022-08-02T22:20:03.125Z,100852.86
2022-08-02T22:25:27.358Z,100856.40
2022-08-02T22:30:36.116Z,100862.09
2022-08-02T22:35:42.167Z,100860.91
2022-08-02T22:40:49.674Z,100860.11
2022-08-02T22:45:55.578Z,100859.48
2022-08-02T22:51:02.310Z,100860.17
2022-08-02T22:56:08.537Z,100863.20
2022-08-02T22:58:59.554Z,100781.13
2022-08-02T22:59:04.204Z,100850.09
2022-08-02T23:01:14.874Z,100871.15
2022-08-02T23:06:22.663Z,100876.35
2022-08-02T23:11:29.093Z,100876.58
2022-08-02T23:16:53.835Z,100875.55
2022-08-02T23:22:02.465Z,100876.50
2022-08-02T23:27:09.555Z,100877.06
2022-08-02T23:32:15.957Z,100870.70
2022-08-02T23:37:22.722Z,100870.13
2022-08-02T23:42:28.822Z,100865.42
2022-08-02T23:47:34.608Z,100863.70
2022-08-02T23:52:40.454Z,100869.59
2022-08-02T23:57:46.659Z,100869.36
